sensor_id;sensor_type;location;lat;lon;timestamp;temperature;humidity
39919;DHT22;25589;51.552;13.424;2023-12-04T00:00:40;-0.40;99.90
39919;DHT22;25589;51.552;13.424;2023-12-04T00:03:05;-0.40;99.90
39919;DHT22;25589;51.552;13.424;2023-12-04T00:05:31;0.70;99.90
39919;DHT22;25589;51.552;13.424;2023-12-04T00:07:59;-1.00;99.90
39919;DHT22;25589;51.552;13.424;2023-12-04T00:10:25;-1.30;99.90
39919;DHT22;25589;51.552;13.424;2023-12-04T00:12:51;0.60;99.90
39919;DHT22;25589;51.552;13.424;2023-12-04T00:15:19;-0.80;99.90
39919;DHT22;25589;51.552;13.424;2023-12-04T00:20:10;-1.10;99.90
39919;DHT22;25589;51.552;13.424;2023-12-04T00:22:37;-0.70;99.90
39919;DHT22;25589;51.552;13.424;2023-12-04T00:29:56;-0.10;99.90
39919;DHT22;25589;51.552;13.424;2023-12-04T00:32:21;-0.60;99.90
39919;DHT22;25589;51.552;13.424;2023-12-04T00:34:47;-0.60;99.90
39919;DHT22;25589;51.552;13.424;2023-12-04T00:39:39;-0.40;99.90
39919;DHT22;25589;51.552;13.424;2023-12-04T00:42:05;-0.60;99.90
39919;DHT22;25589;51.552;13.424;2023-12-04T00:44:30;-0.60;99.90
39919;DHT22;25589;51.552;13.424;2023-12-04T00:46:56;-0.60;99.90
39919;DHT22;25589;51.552;13.424;2023-12-04T00:51:49;-0.70;99.90
39919;DHT22;25589;51.552;13.424;2023-12-04T00:54:14;-1.80;99.90
39919;DHT22;25589;51.552;13.424;2023-12-04T00:56:40;-0.50;99.90
39919;DHT22;25589;51.552;13.424;2023-12-04T00:59:08;-0.70;99.90
39919;DHT22;25589;51.552;13.424;2023-12-04T01:01:35;-0.70;99.90
39919;DHT22;25589;51.552;13.424;2023-12-04T01:04:00;-1.20;99.90
39919;DHT22;25589;51.552;13.424;2023-12-04T01:06:26;-2.10;99.90
39919;DHT22;25589;51.552;13.424;2023-12-04T01:08:53;-0.70;99.90
39919;DHT22;25589;51.552;13.424;2023-12-04T01:11:19;-0.50;99.90
39919;DHT22;25589;51.552;13.424;2023-12-04T01:13:45;0.50;99.90
39919;DHT22;25589;51.552;13.424;2023-12-04T01:16:11;-0.60;99.90
39919;DHT22;25589;51.552;13.424;2023-12-04T01:18:37;-0.40;99.90
39919;DHT22;25589;51.552;13.424;2023-12-04T01:21:03;0.00;99.90
39919;DHT22;25589;51.552;13.424;2023-12-04T01:23:29;-2.00;99.90
39919;DHT22;25589;51.552;13.424;2023-12-04T01:25:54;-1.20;99.90
39919;DHT22;25589;51.552;13.424;2023-12-04T01:30:46;-1.10;99.90
39919;DHT22;25589;51.552;13.424;2023-12-04T01:35:37;-1.10;99.90
39919;DHT22;25589;51.552;13.424;2023-12-04T01:38:03;-1.00;99.90
39919;DHT22;25589;51.552;13.424;2023-12-04T01:40:28;-1.10;99.90
39919;DHT22;25589;51.552;13.424;2023-12-04T01:42:54;-0.90;99.90
39919;DHT22;25589;51.552;13.424;2023-12-04T01:45:19;-1.00;99.90
39919;DHT22;25589;51.552;13.424;2023-12-04T01:50:12;-1.10;99.90
39919;DHT22;25589;51.552;13.424;2023-12-04T01:52:39;-2.00;99.90
39919;DHT22;25589;51.552;13.424;2023-12-04T01:55:06;-1.10;99.90
39919;DHT22;25589;51.552;13.424;2023-12-04T01:57:33;-0.20;99.90
39919;DHT22;25589;51.552;13.424;2023-12-04T01:59:59;-1.20;99.90
39919;DHT22;25589;51.552;13.424;2023-12-04T02:02:27;-1.10;99.90
39919;DHT22;25589;51.552;13.424;2023-12-04T02:04:55;-1.10;99.90
39919;DHT22;25589;51.552;13.424;2023-12-04T02:09:48;-1.10;99.90
39919;DHT22;25589;51.552;13.424;2023-12-04T02:12:13;-0.70;99.90
39919;DHT22;25589;51.552;13.424;2023-12-04T02:14:39;-2.10;99.90
39919;DHT22;25589;51.552;13.424;2023-12-04T02:17:05;0.10;99.90
39919;DHT22;25589;51.552;13.424;2023-12-04T02:19:32;-0.70;99.90
39919;DHT22;25589;51.552;13.424;2023-12-04T02:21:58;-1.80;99.90
39919;DHT22;25589;51.552;13.424;2023-12-04T02:24:24;-1.30;99.90
39919;DHT22;25589;51.552;13.424;2023-12-04T02:26:57;-0.40;99.90
39919;DHT22;25589;51.552;13.424;2023-12-04T02:31:56;-1.80;99.90
39919;DHT22;25589;51.552;13.424;2023-12-04T02:34:24;-1.40;99.90
39919;DHT22;25589;51.552;13.424;2023-12-04T02:39:16;0.00;99.90
39919;DHT22;25589;51.552;13.424;2023-12-04T02:41:42;-0.10;99.90
39919;DHT22;25589;51.552;13.424;2023-12-04T02:44:07;-1.20;99.90
39919;DHT22;25589;51.552;13.424;2023-12-04T02:46:33;-1.30;99.90
39919;DHT22;25589;51.552;13.424;2023-12-04T02:48:59;-2.50;99.90
39919;DHT22;25589;51.552;13.424;2023-12-04T02:51:24;-1.90;99.90
39919;DHT22;25589;51.552;13.424;2023-12-04T02:53:52;-1.40;99.90
39919;DHT22;25589;51.552;13.424;2023-12-04T02:56:17;-0.40;99.90
39919;DHT22;25589;51.552;13.424;2023-12-04T02:58:43;0.40;99.90
39919;DHT22;25589;51.552;13.424;2023-12-04T03:01:09;-0.50;99.90
39919;DHT22;25589;51.552;13.424;2023-12-04T03:03:34;-1.40;99.90
39919;DHT22;25589;51.552;13.424;2023-12-04T03:06:00;-0.20;99.90
39919;DHT22;25589;51.552;13.424;2023-12-04T03:08:25;-0.10;99.90
39919;DHT22;25589;51.552;13.424;2023-12-04T03:10:51;0.40;99.90
39919;DHT22;25589;51.552;13.424;2023-12-04T03:13:16;-2.50;99.90
39919;DHT22;25589;51.552;13.424;2023-12-04T03:18:08;-0.90;99.90
39919;DHT22;25589;51.552;13.424;2023-12-04T03:20:34;-0.90;99.90
39919;DHT22;25589;51.552;13.424;2023-12-04T03:22:59;0.50;99.90
39919;DHT22;25589;51.552;13.424;2023-12-04T03:25:25;-0.80;99.90
39919;DHT22;25589;51.552;13.424;2023-12-04T03:27:50;0.00;99.90
39919;DHT22;25589;51.552;13.424;2023-12-04T03:30:16;-0.90;99.90
39919;DHT22;25589;51.552;13.424;2023-12-04T03:32:41;-0.70;99.90
39919;DHT22;25589;51.552;13.424;2023-12-04T03:38:55;-0.70;99.90
39919;DHT22;25589;51.552;13.424;2023-12-04T03:41:20;-0.80;99.90
39919;DHT22;25589;51.552;13.424;2023-12-04T03:43:47;-0.70;99.90
39919;DHT22;25589;51.552;13.424;2023-12-04T03:46:13;-0.70;99.90
39919;DHT22;25589;51.552;13.424;2023-12-04T03:48:38;-0.90;99.90
39919;DHT22;25589;51.552;13.424;2023-12-04T03:51:05;-1.40;99.90
39919;DHT22;25589;51.552;13.424;2023-12-04T03:53:30;0.00;99.90
39919;DHT22;25589;51.552;13.424;2023-12-04T03:55:58;-1.20;99.90
39919;DHT22;25589;51.552;13.424;2023-12-04T03:58:24;-1.50;99.90
39919;DHT22;25589;51.552;13.424;2023-12-04T04:03:15;0.50;99.90
39919;DHT22;25589;51.552;13.424;2023-12-04T04:05:41;-0.60;99.90
39919;DHT22;25589;51.552;13.424;2023-12-04T04:08:06;-1.10;99.90
39919;DHT22;25589;51.552;13.424;2023-12-04T04:10:33;0.50;99.90
39919;DHT22;25589;51.552;13.424;2023-12-04T04:12:59;-0.70;99.90
39919;DHT22;25589;51.552;13.424;2023-12-04T04:15:25;0.40;99.90
39919;DHT22;25589;51.552;13.424;2023-12-04T04:17:51;-1.10;99.90
39919;DHT22;25589;51.552;13.424;2023-12-04T04:20:17;-0.90;99.90
39919;DHT22;25589;51.552;13.424;2023-12-04T04:22:43;-0.80;99.90
39919;DHT22;25589;51.552;13.424;2023-12-04T04:25:08;-0.30;99.90
39919;DHT22;25589;51.552;13.424;2023-12-04T04:27:34;-1.00;99.90
39919;DHT22;25589;51.552;13.424;2023-12-04T04:30:00;-1.10;99.90
39919;DHT22;25589;51.552;13.424;2023-12-04T04:34:52;-1.40;99.90
39919;DHT22;25589;51.552;13.424;2023-12-04T04:37:19;-1.10;99.90
39919;DHT22;25589;51.552;13.424;2023-12-04T04:39:45;0.00;99.90
39919;DHT22;25589;51.552;13.424;2023-12-04T04:42:11;-1.00;99.90
39919;DHT22;25589;51.552;13.424;2023-12-04T04:44:37;-1.10;99.90
39919;DHT22;25589;51.552;13.424;2023-12-04T04:49:28;-1.10;99.90
39919;DHT22;25589;51.552;13.424;2023-12-04T04:51:54;-1.10;99.90
39919;DHT22;25589;51.552;13.424;2023-12-04T04:54:19;-1.00;99.90
39919;DHT22;25589;51.552;13.424;2023-12-04T04:56:45;-1.00;99.90
39919;DHT22;25589;51.552;13.424;2023-12-04T04:59:11;-0.90;99.90
39919;DHT22;25589;51.552;13.424;2023-12-04T05:01:36;-0.90;99.90
39919;DHT22;25589;51.552;13.424;2023-12-04T05:06:28;0.10;99.90
39919;DHT22;25589;51.552;13.424;2023-12-04T05:08:55;-0.30;99.90
39919;DHT22;25589;51.552;13.424;2023-12-04T05:11:20;-0.70;99.90
39919;DHT22;25589;51.552;13.424;2023-12-04T05:13:46;-0.80;99.90
39919;DHT22;25589;51.552;13.424;2023-12-04T05:16:12;-1.30;99.90
39919;DHT22;25589;51.552;13.424;2023-12-04T05:18:41;-0.70;99.90
39919;DHT22;25589;51.552;13.424;2023-12-04T05:23:39;0.20;99.90
39919;DHT22;25589;51.552;13.424;2023-12-04T05:26:05;0.10;99.90
39919;DHT22;25589;51.552;13.424;2023-12-04T05:28:31;-0.30;99.90
39919;DHT22;25589;51.552;13.424;2023-12-04T05:30:57;-0.60;99.90
39919;DHT22;25589;51.552;13.424;2023-12-04T05:33:22;-1.70;99.90
39919;DHT22;25589;51.552;13.424;2023-12-04T05:35:48;0.20;99.90
39919;DHT22;25589;51.552;13.424;2023-12-04T05:38:16;0.70;99.90
39919;DHT22;25589;51.552;13.424;2023-12-04T05:40:42;-1.00;99.90
39919;DHT22;25589;51.552;13.424;2023-12-04T05:43:07;-1.80;99.90
39919;DHT22;25589;51.552;13.424;2023-12-04T05:45:33;-0.50;99.90
39919;DHT22;25589;51.552;13.424;2023-12-04T05:47:58;0.00;99.90
39919;DHT22;25589;51.552;13.424;2023-12-04T05:50:24;-0.40;99.90
39919;DHT22;25589;51.552;13.424;2023-12-04T05:55:16;-0.50;99.90
39919;DHT22;25589;51.552;13.424;2023-12-04T05:57:43;-0.10;99.90
39919;DHT22;25589;51.552;13.424;2023-12-04T06:00:09;-0.50;99.90
39919;DHT22;25589;51.552;13.424;2023-12-04T06:02:38;-0.50;99.90
39919;DHT22;25589;51.552;13.424;2023-12-04T06:05:04;-1.40;99.90
39919;DHT22;25589;51.552;13.424;2023-12-04T06:07:30;0.50;99.90
39919;DHT22;25589;51.552;13.424;2023-12-04T06:09:55;-0.50;99.90
39919;DHT22;25589;51.552;13.424;2023-12-04T06:12:21;0.80;99.90
39919;DHT22;25589;51.552;13.424;2023-12-04T06:14:47;-0.40;99.90
39919;DHT22;25589;51.552;13.424;2023-12-04T06:19:38;-1.40;99.90
39919;DHT22;25589;51.552;13.424;2023-12-04T06:22:04;-0.10;99.90
39919;DHT22;25589;51.552;13.424;2023-12-04T06:24:30;-0.80;99.90
39919;DHT22;25589;51.552;13.424;2023-12-04T06:26:56;-0.30;99.90
39919;DHT22;25589;51.552;13.424;2023-12-04T06:29:23;0.00;99.90
39919;DHT22;25589;51.552;13.424;2023-12-04T06:31:48;1.30;99.90
39919;DHT22;25589;51.552;13.424;2023-12-04T06:34:14;-0.20;99.90
39919;DHT22;25589;51.552;13.424;2023-12-04T06:36:40;-0.20;99.90
39919;DHT22;25589;51.552;13.424;2023-12-04T06:39:10;0.10;99.90
39919;DHT22;25589;51.552;13.424;2023-12-04T06:41:37;-0.50;99.90
39919;DHT22;25589;51.552;13.424;2023-12-04T06:44:04;0.00;99.90
39919;DHT22;25589;51.552;13.424;2023-12-04T06:46:36;0.00;99.90
39919;DHT22;25589;51.552;13.424;2023-12-04T06:51:31;0.80;99.90
39919;DHT22;25589;51.552;13.424;2023-12-04T06:53:56;-1.00;99.90
39919;DHT22;25589;51.552;13.424;2023-12-04T06:56:22;0.10;99.90
39919;DHT22;25589;51.552;13.424;2023-12-04T06:58:48;0.10;99.90
39919;DHT22;25589;51.552;13.424;2023-12-04T07:01:13;0.40;99.90
39919;DHT22;25589;51.552;13.424;2023-12-04T07:03:39;0.10;99.90
39919;DHT22;25589;51.552;13.424;2023-12-04T07:08:31;0.20;99.90
39919;DHT22;25589;51.552;13.424;2023-12-04T07:10:56;0.50;99.90
39919;DHT22;25589;51.552;13.424;2023-12-04T07:13:22;0.10;99.90
39919;DHT22;25589;51.552;13.424;2023-12-04T07:15:47;-0.10;99.90
39919;DHT22;25589;51.552;13.424;2023-12-04T07:18:13;0.30;99.90
39919;DHT22;25589;51.552;13.424;2023-12-04T07:20:38;0.20;99.90
39919;DHT22;25589;51.552;13.424;2023-12-04T07:23:04;0.30;99.90
39919;DHT22;25589;51.552;13.424;2023-12-04T07:25:29;0.30;99.90
39919;DHT22;25589;51.552;13.424;2023-12-04T07:27:55;0.30;99.90
39919;DHT22;25589;51.552;13.424;2023-12-04T07:30:23;-0.30;99.90
39919;DHT22;25589;51.552;13.424;2023-12-04T07:32:50;0.60;99.90
39919;DHT22;25589;51.552;13.424;2023-12-04T07:35:16;1.20;99.90
39919;DHT22;25589;51.552;13.424;2023-12-04T07:37:43;0.90;99.90
39919;DHT22;25589;51.552;13.424;2023-12-04T07:40:09;1.70;99.90
39919;DHT22;25589;51.552;13.424;2023-12-04T07:42:36;0.50;99.90
39919;DHT22;25589;51.552;13.424;2023-12-04T07:45:02;1.40;99.90
39919;DHT22;25589;51.552;13.424;2023-12-04T07:49:53;0.60;99.90
39919;DHT22;25589;51.552;13.424;2023-12-04T07:52:19;0.60;99.90
39919;DHT22;25589;51.552;13.424;2023-12-04T07:54:45;0.70;99.90
39919;DHT22;25589;51.552;13.424;2023-12-04T07:57:10;0.80;99.90
39919;DHT22;25589;51.552;13.424;2023-12-04T07:59:36;1.90;99.90
39919;DHT22;25589;51.552;13.424;2023-12-04T08:02:01;1.60;99.90
39919;DHT22;25589;51.552;13.424;2023-12-04T08:04:27;0.60;99.90
39919;DHT22;25589;51.552;13.424;2023-12-04T08:06:53;0.90;99.90
39919;DHT22;25589;51.552;13.424;2023-12-04T08:09:18;-0.20;99.90
39919;DHT22;25589;51.552;13.424;2023-12-04T08:11:44;1.10;99.90
39919;DHT22;25589;51.552;13.424;2023-12-04T08:14:10;2.40;99.90
39919;DHT22;25589;51.552;13.424;2023-12-04T08:16:35;2.20;99.90
39919;DHT22;25589;51.552;13.424;2023-12-04T08:19:01;1.20;99.90
39919;DHT22;25589;51.552;13.424;2023-12-04T08:21:27;1.20;99.90
39919;DHT22;25589;51.552;13.424;2023-12-04T08:23:52;1.30;99.90
39919;DHT22;25589;51.552;13.424;2023-12-04T08:28:54;1.50;99.90
39919;DHT22;25589;51.552;13.424;2023-12-04T08:31:19;2.50;99.90
39919;DHT22;25589;51.552;13.424;2023-12-04T08:33:45;1.40;99.90
39919;DHT22;25589;51.552;13.424;2023-12-04T08:36:11;0.20;99.90
39919;DHT22;25589;51.552;13.424;2023-12-04T08:38:37;1.50;99.90
39919;DHT22;25589;51.552;13.424;2023-12-04T08:41:04;1.40;99.90
39919;DHT22;25589;51.552;13.424;2023-12-04T08:43:29;1.50;99.90
39919;DHT22;25589;51.552;13.424;2023-12-04T08:45:55;1.70;99.90
39919;DHT22;25589;51.552;13.424;2023-12-04T08:48:21;0.60;99.90
39919;DHT22;25589;51.552;13.424;2023-12-04T08:50:47;1.90;99.90
39919;DHT22;25589;51.552;13.424;2023-12-04T08:53:13;1.90;99.90
39919;DHT22;25589;51.552;13.424;2023-12-04T08:55:39;1.90;99.90
39919;DHT22;25589;51.552;13.424;2023-12-04T08:58:05;1.70;99.90
39919;DHT22;25589;51.552;13.424;2023-12-04T09:00:31;2.00;99.90
39919;DHT22;25589;51.552;13.424;2023-12-04T09:02:57;2.00;99.90
39919;DHT22;25589;51.552;13.424;2023-12-04T09:05:23;2.10;99.90
39919;DHT22;25589;51.552;13.424;2023-12-04T09:07:48;2.10;99.90
39919;DHT22;25589;51.552;13.424;2023-12-04T09:10:14;2.60;99.90
39919;DHT22;25589;51.552;13.424;2023-12-04T09:12:40;2.50;99.90
39919;DHT22;25589;51.552;13.424;2023-12-04T09:17:32;2.20;99.90
39919;DHT22;25589;51.552;13.424;2023-12-04T09:19:57;2.40;99.90
39919;DHT22;25589;51.552;13.424;2023-12-04T09:22:23;3.50;99.90
39919;DHT22;25589;51.552;13.424;2023-12-04T09:24:49;3.10;99.90
39919;DHT22;25589;51.552;13.424;2023-12-04T09:27:15;2.60;99.90
39919;DHT22;25589;51.552;13.424;2023-12-04T09:29:42;3.10;99.90
39919;DHT22;25589;51.552;13.424;2023-12-04T09:32:08;2.60;99.90
39919;DHT22;25589;51.552;13.424;2023-12-04T09:34:35;2.70;99.90
39919;DHT22;25589;51.552;13.424;2023-12-04T09:37:01;2.90;99.90
39919;DHT22;25589;51.552;13.424;2023-12-04T09:39:27;2.90;99.90
39919;DHT22;25589;51.552;13.424;2023-12-04T09:41:53;3.00;99.90
39919;DHT22;25589;51.552;13.424;2023-12-04T09:46:48;2.90;99.90
39919;DHT22;25589;51.552;13.424;2023-12-04T09:49:14;2.90;99.90
39919;DHT22;25589;51.552;13.424;2023-12-04T09:51:42;3.80;99.90
39919;DHT22;25589;51.552;13.424;2023-12-04T09:54:08;3.00;99.90
39919;DHT22;25589;51.552;13.424;2023-12-04T09:56:34;2.80;99.90
39919;DHT22;25589;51.552;13.424;2023-12-04T09:59:00;3.00;99.90
39919;DHT22;25589;51.552;13.424;2023-12-04T10:01:28;3.20;99.90
39919;DHT22;25589;51.552;13.424;2023-12-04T10:03:56;3.10;99.90
39919;DHT22;25589;51.552;13.424;2023-12-04T10:06:25;4.30;99.90
39919;DHT22;25589;51.552;13.424;2023-12-04T10:08:51;3.20;99.90
39919;DHT22;25589;51.552;13.424;2023-12-04T10:11:17;4.00;99.90
39919;DHT22;25589;51.552;13.424;2023-12-04T10:13:43;3.90;99.90
39919;DHT22;25589;51.552;13.424;2023-12-04T10:16:08;3.20;99.90
39919;DHT22;25589;51.552;13.424;2023-12-04T10:18:34;4.00;99.90
39919;DHT22;25589;51.552;13.424;2023-12-04T10:21:00;4.20;99.90
39919;DHT22;25589;51.552;13.424;2023-12-04T10:23:38;3.30;99.90
39919;DHT22;25589;51.552;13.424;2023-12-04T10:26:05;4.50;99.90
39919;DHT22;25589;51.552;13.424;2023-12-04T10:28:32;3.40;99.90
39919;DHT22;25589;51.552;13.424;2023-12-04T10:30:58;3.20;99.90
39919;DHT22;25589;51.552;13.424;2023-12-04T10:33:25;3.20;99.90
39919;DHT22;25589;51.552;13.424;2023-12-04T10:35:53;3.90;99.90
39919;DHT22;25589;51.552;13.424;2023-12-04T10:38:19;4.00;99.90
39919;DHT22;25589;51.552;13.424;2023-12-04T10:40:45;3.30;99.90
39919;DHT22;25589;51.552;13.424;2023-12-04T10:43:18;3.40;99.90
39919;DHT22;25589;51.552;13.424;2023-12-04T10:45:46;3.40;99.90
39919;DHT22;25589;51.552;13.424;2023-12-04T10:48:13;3.40;99.90
39919;DHT22;25589;51.552;13.424;2023-12-04T10:50:40;3.50;99.90
39919;DHT22;25589;51.552;13.424;2023-12-04T10:53:07;3.40;99.90
39919;DHT22;25589;51.552;13.424;2023-12-04T10:55:33;4.30;99.90
39919;DHT22;25589;51.552;13.424;2023-12-04T10:58:05;3.10;99.90
39919;DHT22;25589;51.552;13.424;2023-12-04T11:00:37;3.40;99.90
39919;DHT22;25589;51.552;13.424;2023-12-04T11:03:08;3.70;99.90
39919;DHT22;25589;51.552;13.424;2023-12-04T11:05:39;4.90;99.90
39919;DHT22;25589;51.552;13.424;2023-12-04T11:08:11;3.70;99.90
39919;DHT22;25589;51.552;13.424;2023-12-04T11:15:59;4.00;99.90
39919;DHT22;25589;51.552;13.424;2023-12-04T11:18:27;2.80;99.90
39919;DHT22;25589;51.552;13.424;2023-12-04T11:21:02;3.70;99.90
39919;DHT22;25589;51.552;13.424;2023-12-04T11:23:29;3.80;99.90
39919;DHT22;25589;51.552;13.424;2023-12-04T11:25:57;3.80;99.90
39919;DHT22;25589;51.552;13.424;2023-12-04T11:28:24;3.40;99.90
39919;DHT22;25589;51.552;13.424;2023-12-04T11:30:50;3.70;99.90
39919;DHT22;25589;51.552;13.424;2023-12-04T11:33:17;4.80;99.90
39919;DHT22;25589;51.552;13.424;2023-12-04T11:35:44;3.10;99.90
39919;DHT22;25589;51.552;13.424;2023-12-04T11:40:40;4.40;99.90
39919;DHT22;25589;51.552;13.424;2023-12-04T11:45:53;4.10;99.90
39919;DHT22;25589;51.552;13.424;2023-12-04T11:48:25;3.50;99.90
39919;DHT22;25589;51.552;13.424;2023-12-04T11:50:50;3.00;99.90
39919;DHT22;25589;51.552;13.424;2023-12-04T11:53:16;4.40;99.90
39919;DHT22;25589;51.552;13.424;2023-12-04T11:55:42;4.10;99.90
39919;DHT22;25589;51.552;13.424;2023-12-04T12:03:06;3.60;99.90
39919;DHT22;25589;51.552;13.424;2023-12-04T12:05:34;4.30;99.90
39919;DHT22;25589;51.552;13.424;2023-12-04T12:10:28;5.00;99.90
39919;DHT22;25589;51.552;13.424;2023-12-04T12:12:54;4.90;99.90
39919;DHT22;25589;51.552;13.424;2023-12-04T12:15:20;3.80;99.90
39919;DHT22;25589;51.552;13.424;2023-12-04T12:17:45;3.60;99.90
39919;DHT22;25589;51.552;13.424;2023-12-04T12:20:13;3.80;99.90
39919;DHT22;25589;51.552;13.424;2023-12-04T12:22:38;3.60;99.90
39919;DHT22;25589;51.552;13.424;2023-12-04T12:25:10;3.70;99.90
39919;DHT22;25589;51.552;13.424;2023-12-04T12:27:36;3.10;99.90
39919;DHT22;25589;51.552;13.424;2023-12-04T12:30:02;3.70;99.90
39919;DHT22;25589;51.552;13.424;2023-12-04T12:32:30;4.00;99.90
39919;DHT22;25589;51.552;13.424;2023-12-04T12:34:56;5.50;99.90
39919;DHT22;25589;51.552;13.424;2023-12-04T12:37:21;5.40;99.90
39919;DHT22;25589;51.552;13.424;2023-12-04T12:39:47;3.90;99.90
39919;DHT22;25589;51.552;13.424;2023-12-04T12:44:48;3.80;99.90
39919;DHT22;25589;51.552;13.424;2023-12-04T12:47:17;3.40;99.90
39919;DHT22;25589;51.552;13.424;2023-12-04T12:49:43;3.80;99.90
39919;DHT22;25589;51.552;13.424;2023-12-04T12:52:09;3.70;99.90
39919;DHT22;25589;51.552;13.424;2023-12-04T12:54:40;4.40;99.90
39919;DHT22;25589;51.552;13.424;2023-12-04T12:57:08;4.00;99.90
39919;DHT22;25589;51.552;13.424;2023-12-04T13:02:01;4.30;99.90
39919;DHT22;25589;51.552;13.424;2023-12-04T13:04:37;3.90;99.90
39919;DHT22;25589;51.552;13.424;2023-12-04T13:07:03;3.40;99.90
39919;DHT22;25589;51.552;13.424;2023-12-04T13:09:29;4.60;99.90
39919;DHT22;25589;51.552;13.424;2023-12-04T13:11:55;3.40;99.90
39919;DHT22;25589;51.552;13.424;2023-12-04T13:14:21;4.80;99.90
39919;DHT22;25589;51.552;13.424;2023-12-04T13:16:46;3.40;99.90
39919;DHT22;25589;51.552;13.424;2023-12-04T13:19:12;2.60;99.90
39919;DHT22;25589;51.552;13.424;2023-12-04T13:21:37;3.60;99.90
39919;DHT22;25589;51.552;13.424;2023-12-04T13:24:03;3.50;99.90
39919;DHT22;25589;51.552;13.424;2023-12-04T13:26:33;4.50;99.90
39919;DHT22;25589;51.552;13.424;2023-12-04T13:28:59;1.50;99.90
39919;DHT22;25589;51.552;13.424;2023-12-04T13:31:24;4.30;99.90
39919;DHT22;25589;51.552;13.424;2023-12-04T13:33:50;4.40;99.90
39919;DHT22;25589;51.552;13.424;2023-12-04T13:36:16;3.30;99.90
39919;DHT22;25589;51.552;13.424;2023-12-04T13:38:41;4.20;99.90
39919;DHT22;25589;51.552;13.424;2023-12-04T13:41:07;4.50;99.90
39919;DHT22;25589;51.552;13.424;2023-12-04T13:43:51;3.10;99.90
39919;DHT22;25589;51.552;13.424;2023-12-04T13:46:17;4.20;99.90
39919;DHT22;25589;51.552;13.424;2023-12-04T13:48:42;3.20;99.90
39919;DHT22;25589;51.552;13.424;2023-12-04T13:51:12;3.20;99.90
39919;DHT22;25589;51.552;13.424;2023-12-04T13:53:39;3.10;99.90
39919;DHT22;25589;51.552;13.424;2023-12-04T13:56:10;2.10;99.90
39919;DHT22;25589;51.552;13.424;2023-12-04T14:01:25;4.20;99.90
39919;DHT22;25589;51.552;13.424;2023-12-04T14:03:54;3.20;99.90
39919;DHT22;25589;51.552;13.424;2023-12-04T14:06:21;3.10;99.90
39919;DHT22;25589;51.552;13.424;2023-12-04T14:08:47;3.10;99.90
39919;DHT22;25589;51.552;13.424;2023-12-04T14:11:13;3.20;99.90
39919;DHT22;25589;51.552;13.424;2023-12-04T14:13:40;3.70;99.90
39919;DHT22;25589;51.552;13.424;2023-12-04T14:16:06;3.00;99.90
39919;DHT22;25589;51.552;13.424;2023-12-04T14:18:31;3.50;99.90
39919;DHT22;25589;51.552;13.424;2023-12-04T14:23:24;3.10;99.90
39919;DHT22;25589;51.552;13.424;2023-12-04T14:25:49;3.60;99.90
39919;DHT22;25589;51.552;13.424;2023-12-04T14:28:16;3.10;99.90
39919;DHT22;25589;51.552;13.424;2023-12-04T14:33:08;3.50;99.90
39919;DHT22;25589;51.552;13.424;2023-12-04T14:35:35;2.70;99.90
39919;DHT22;25589;51.552;13.424;2023-12-04T14:42:58;3.50;99.90
39919;DHT22;25589;51.552;13.424;2023-12-04T14:45:24;3.60;99.90
39919;DHT22;25589;51.552;13.424;2023-12-04T14:47:50;3.10;99.90
39919;DHT22;25589;51.552;13.424;2023-12-04T14:50:19;1.80;99.90
39919;DHT22;25589;51.552;13.424;2023-12-04T14:52:45;2.80;99.90
39919;DHT22;25589;51.552;13.424;2023-12-04T14:55:16;2.70;99.90
39919;DHT22;25589;51.552;13.424;2023-12-04T14:57:49;3.30;99.90
39919;DHT22;25589;51.552;13.424;2023-12-04T15:00:27;1.70;99.90
39919;DHT22;25589;51.552;13.424;2023-12-04T15:03:11;2.10;99.90
39919;DHT22;25589;51.552;13.424;2023-12-04T15:05:56;2.70;99.90
39919;DHT22;25589;51.552;13.424;2023-12-04T15:08:21;3.50;99.90
39919;DHT22;25589;51.552;13.424;2023-12-04T15:10:50;2.60;99.90
39919;DHT22;25589;51.552;13.424;2023-12-04T15:13:44;2.60;99.90
39919;DHT22;25589;51.552;13.424;2023-12-04T15:16:21;2.50;99.90
39919;DHT22;25589;51.552;13.424;2023-12-04T15:19:00;2.60;99.90
39919;DHT22;25589;51.552;13.424;2023-12-04T15:21:45;2.50;99.90
39919;DHT22;25589;51.552;13.424;2023-12-04T15:26:37;1.60;99.90
39919;DHT22;25589;51.552;13.424;2023-12-04T15:29:02;3.90;99.90
39919;DHT22;25589;51.552;13.424;2023-12-04T15:31:31;2.70;99.90
39919;DHT22;25589;51.552;13.424;2023-12-04T15:33:56;2.10;99.90
39919;DHT22;25589;51.552;13.424;2023-12-04T15:36:22;3.20;99.90
39919;DHT22;25589;51.552;13.424;2023-12-04T15:38:48;2.60;99.90
39919;DHT22;25589;51.552;13.424;2023-12-04T15:41:14;2.80;99.90
39919;DHT22;25589;51.552;13.424;2023-12-04T15:43:41;2.80;99.90
39919;DHT22;25589;51.552;13.424;2023-12-04T15:46:10;2.60;99.90
39919;DHT22;25589;51.552;13.424;2023-12-04T15:48:35;3.00;99.90
39919;DHT22;25589;51.552;13.424;2023-12-04T15:51:01;2.60;99.90
39919;DHT22;25589;51.552;13.424;2023-12-04T15:53:26;3.40;99.90
39919;DHT22;25589;51.552;13.424;2023-12-04T15:55:52;2.50;99.90
39919;DHT22;25589;51.552;13.424;2023-12-04T15:58:17;2.90;99.90
39919;DHT22;25589;51.552;13.424;2023-12-04T16:00:43;3.00;99.90
39919;DHT22;25589;51.552;13.424;2023-12-04T16:03:09;3.00;99.90
39919;DHT22;25589;51.552;13.424;2023-12-04T16:05:34;3.30;99.90
39919;DHT22;25589;51.552;13.424;2023-12-04T16:08:00;2.80;99.90
39919;DHT22;25589;51.552;13.424;2023-12-04T16:10:26;2.70;99.90
39919;DHT22;25589;51.552;13.424;2023-12-04T16:12:52;2.40;99.90
39919;DHT22;25589;51.552;13.424;2023-12-04T16:15:18;1.20;99.90
39919;DHT22;25589;51.552;13.424;2023-12-04T16:17:45;3.10;99.90
39919;DHT22;25589;51.552;13.424;2023-12-04T16:20:11;2.30;99.90
39919;DHT22;25589;51.552;13.424;2023-12-04T16:22:39;2.10;99.90
39919;DHT22;25589;51.552;13.424;2023-12-04T16:25:06;2.40;99.90
39919;DHT22;25589;51.552;13.424;2023-12-04T16:27:32;2.40;99.90
39919;DHT22;25589;51.552;13.424;2023-12-04T16:29:58;3.00;99.90
39919;DHT22;25589;51.552;13.424;2023-12-04T16:32:24;2.50;99.90
39919;DHT22;25589;51.552;13.424;2023-12-04T16:34:50;2.60;99.90
39919;DHT22;25589;51.552;13.424;2023-12-04T16:37:15;1.30;99.90
39919;DHT22;25589;51.552;13.424;2023-12-04T16:39:41;1.30;99.90
39919;DHT22;25589;51.552;13.424;2023-12-04T16:42:07;2.30;99.90
39919;DHT22;25589;51.552;13.424;2023-12-04T16:44:32;2.10;99.90
39919;DHT22;25589;51.552;13.424;2023-12-04T16:46:58;2.20;99.90
39919;DHT22;25589;51.552;13.424;2023-12-04T16:49:24;2.20;99.90
39919;DHT22;25589;51.552;13.424;2023-12-04T16:51:50;3.10;99.90
39919;DHT22;25589;51.552;13.424;2023-12-04T16:54:16;2.60;99.90
39919;DHT22;25589;51.552;13.424;2023-12-04T16:56:42;1.60;99.90
39919;DHT22;25589;51.552;13.424;2023-12-04T16:59:07;2.50;99.90
39919;DHT22;25589;51.552;13.424;2023-12-04T17:01:33;2.00;99.90
39919;DHT22;25589;51.552;13.424;2023-12-04T17:04:00;2.70;99.90